Smithland, Texas
Current Conditions -  °F | °C
As of 8:15 AM on Saturday 25 Oct 2014 (Local Time) from KASL Reporting Station
Clear Clear  
Wind Chill: 56°   Ceiling: Unl
Heat Index: 56°   Visibility: 5mi
Dew Point: 54°   Wind: 0mph
Humidity: 92%   Direction: NA
Pressure: 30.17"   Gusts: NA
Location:  32.7902°N, 94.3019°W
Report Text: KASL 251315Z AUTO 00000KT 5SM CLR 14/12 A3017 RMK AO1 T01360124
Loading
Personal Weather Stations






























Interactive Weather Map
Tropical Storm Tracking
New forecast layout! Learn more

10-Day Weather Forecast

Advertisements
Track Severe Weather on mobile